Terminal Aerodrome Forecast
Issued by NWS

Home | Current Version | Previous Version | Text Only | Print | Product List | Glossary On
Versions: 1 2 3 4 5 6 7 8 9 10 11 12 13 14
000
FTUS45 KABQ 071740
TAFTCC
TAF
KTCC 071740Z 0718/0818 07011KT P6SM OVC030
      TEMPO 0718/0720 3SM BR FEW015 OVC030
     FM072100 08008KT P6SM SCT030 BKN050
     FM080000 10008KT P6SM SCT050
     FM080400 12007KT P6SM SCT015 BKN030=

USA.gov is the U.S. government's official web portal to all federal, state and local government web resources and services.